Time;durP1;ratioP1;P1;durP2;ratioP2;P2;SDS_P1;SDS_P2;PMS_P1;PMS_P2;Temp;Humidity;BMP_temperature;BMP_pressure;BME280_temperature;BME280_humidity;BME280_pressure;Samples;Min_cycle;Max_cycle;Signal;HPM_P1;HPM_P2
2021/03/29 00:02:09;;;;;;;11.27;5.03;;;;;;;13.22;47.57;102597.44;4885300;28;112849;-74
2021/03/29 00:04:36;;;;;;;16.17;5.60;;;;;;;13.20;47.62;102596.63;4899477;28;122859;-74
2021/03/29 00:07:05;;;;;;;13.80;5.80;;;;;;;13.19;47.56;102589.56;4897818;28;124213;-74
2021/03/29 00:09:34;;;;;;;16.05;5.57;;;;;;;13.20;47.71;102593.97;4897504;28;114823;-74
2021/03/29 00:12:04;;;;;;;15.60;6.00;;;;;;;13.19;47.72;102592.22;4900711;28;115043;-74
2021/03/29 00:14:32;;;;;;;15.55;5.65;;;;;;;13.18;47.68;102601.13;4900019;28;124775;-74
2021/03/29 00:16:58;;;;;;;16.80;5.75;;;;;;;13.18;47.70;102595.78;4894786;28;124052;-74
2021/03/29 00:19:30;;;;;;;14.65;6.45;;;;;;;13.16;48.00;102598.50;4881282;28;113903;-74
2021/03/29 00:21:57;;;;;;;16.13;5.82;;;;;;;13.17;47.81;102594.06;4901009;28;114112;-74
2021/03/29 00:24:24;;;;;;;14.45;5.72;;;;;;;13.16;47.80;102593.16;4903286;28;123839;-74
2021/03/29 00:26:51;;;;;;;12.82;5.90;;;;;;;13.15;47.87;102588.78;4891351;28;122523;-74
2021/03/29 00:29:17;;;;;;;15.63;6.18;;;;;;;13.14;48.04;102594.13;4897398;28;113833;-74
2021/03/29 00:31:44;;;;;;;13.85;6.30;;;;;;;13.14;47.90;102588.81;4898597;28;114596;-74
2021/03/29 00:34:11;;;;;;;15.30;5.95;;;;;;;13.15;47.84;102585.25;4895216;28;124403;-74
2021/03/29 00:36:39;;;;;;;13.27;5.57;;;;;;;13.13;47.92;102587.06;4896160;28;124489;-74
2021/03/29 00:39:08;;;;;;;14.35;6.00;;;;;;;13.13;47.76;102581.75;4896351;28;114416;-74
2021/03/29 00:41:35;;;;;;;13.05;5.72;;;;;;;13.13;47.97;102587.06;4900461;28;114300;-74
2021/03/29 00:44:04;;;;;;;16.15;6.00;;;;;;;13.11;48.00;102578.25;4876516;28;123905;-74
2021/03/29 00:46:31;;;;;;;14.93;6.15;;;;;;;13.11;48.04;102583.56;4895135;28;124910;-74
2021/03/29 00:48:58;;;;;;;13.90;6.35;;;;;;;13.11;48.09;102578.25;4880457;28;113634;-74
2021/03/29 00:51:28;;;;;;;12.30;6.00;;;;;;;13.10;48.21;102574.72;4881471;28;113629;-74
2021/03/29 00:54:03;;;;;;;17.65;6.47;;;;;;;13.09;48.01;102574.75;4894668;28;123359;-74
2021/03/29 00:56:32;;;;;;;14.75;6.20;;;;;;;13.10;48.09;102582.72;4893826;28;124099;-74
2021/03/29 00:58:59;;;;;;;15.80;6.38;;;;;;;13.09;48.02;102574.75;4898901;28;114261;-74
2021/03/29 01:01:31;;;;;;;17.52;6.43;;;;;;;13.08;48.16;102575.69;4896291;28;115235;-74
2021/03/29 01:03:59;;;;;;;18.48;6.68;;;;;;;13.07;48.15;102576.59;4891892;28;124732;-74
2021/03/29 01:06:33;;;;;;;15.40;6.65;;;;;;;13.05;48.02;102580.19;4893384;28;123837;-75
2021/03/29 01:09:13;;;;;;;13.10;6.07;;;;;;;13.05;48.37;102574.88;4896894;28;114917;-75
2021/03/29 01:11:43;;;;;;;16.33;6.65;;;;;;;13.03;47.96;102571.38;4891810;28;114093;-75
2021/03/29 01:14:14;;;;;;;13.00;6.28;;;;;;;13.02;48.14;102564.31;4893387;28;124122;-76
2021/03/29 01:16:47;;;;;;;16.38;6.55;;;;;;;13.03;48.17;102571.38;4873550;28;124337;-75
2021/03/29 01:19:34;;;;;;;19.20;6.20;;;;;;;13.03;48.17;102566.06;4891149;28;114245;-75
2021/03/29 01:22:06;;;;;;;15.43;6.03;;;;;;;13.01;48.10;102573.19;4891756;28;113974;-75
2021/03/29 01:25:00;;;;;;;16.95;6.18;;;;;;;13.01;47.98;102567.88;4896703;28;123037;-75
2021/03/29 01:27:31;;;;;;;14.90;5.57;;;;;;;13.01;47.96;102567.88;4901495;28;124617;-75
2021/03/29 01:29:59;;;;;;;11.32;5.50;;;;;;;13.01;48.01;102577.63;4896368;28;114029;-75
2021/03/29 01:32:28;;;;;;;15.07;5.90;;;;;;;13.02;47.84;102574.94;4896081;28;113992;-75
2021/03/29 01:34:56;;;;;;;16.63;6.03;;;;;;;13.02;47.96;102569.63;4880049;28;124677;-76
2021/03/29 01:37:24;;;;;;;14.90;6.15;;;;;;;13.02;47.81;102574.94;4863092;28;124144;-75
2021/03/29 01:39:51;;;;;;;15.15;5.85;;;;;;;13.03;47.88;102571.38;4902536;28;114812;-75
2021/03/29 01:42:20;;;;;;;17.02;5.95;;;;;;;13.03;47.71;102565.16;4896752;28;114198;-75
2021/03/29 01:44:47;;;;;;;16.42;6.10;;;;;;;13.02;47.68;102564.31;4893096;28;123501;-75
2021/03/29 01:47:15;;;;;;;13.15;6.28;;;;;;;13.03;47.78;102559.84;4877174;28;123814;-76
2021/03/29 01:49:42;;;;;;;14.60;6.32;;;;;;;13.03;47.69;102560.75;4896454;28;115848;-75
2021/03/29 01:52:09;;;;;;;18.20;5.90;;;;;;;13.03;47.66;102566.06;4897373;28;114453;-75
2021/03/29 01:54:37;;;;;;;17.05;5.70;;;;;;;13.04;47.74;102567.78;4895525;28;123804;-75
2021/03/29 01:57:10;;;;;;;11.52;5.30;;;;;;;13.03;47.71;102562.50;4877958;28;123896;-75
2021/03/29 01:59:38;;;;;;;18.00;6.00;;;;;;;13.04;47.35;102561.59;4892024;28;115015;-75
2021/03/29 02:02:06;;;;;;;15.32;5.63;;;;;;;13.03;47.41;102566.06;4896644;28;114557;-76
2021/03/29 02:04:34;;;;;;;14.93;5.45;;;;;;;13.04;47.22;102573.09;4882921;28;123926;-75
2021/03/29 02:07:02;;;;;;;15.07;5.38;;;;;;;13.04;47.42;102567.78;4873808;28;123896;-75
2021/03/29 02:09:30;;;;;;;13.57;5.40;;;;;;;13.04;47.40;102573.09;4881306;28;114248;-76
2021/03/29 02:11:58;;;;;;;11.70;5.22;;;;;;;13.04;47.30;102551.81;4895631;28;113670;-76
2021/03/29 02:14:28;;;;;;;12.38;5.50;;;;;;;13.04;47.41;102546.50;4880960;28;122883;-76
2021/03/29 02:16:57;;;;;;;14.07;5.75;;;;;;;13.05;47.31;102553.59;4897857;28;124258;-75
2021/03/29 02:19:25;;;;;;;10.30;5.10;;;;;;;13.04;47.34;102549.16;4897339;28;114869;-75
2021/03/29 02:21:54;;;;;;;12.57;5.00;;;;;;;13.05;47.28;102553.59;4903478;28;114777;-75
2021/03/29 02:24:22;;;;;;;11.98;5.28;;;;;;;13.08;47.24;102557.06;4880995;28;124006;-75
2021/03/29 02:26:49;;;;;;;12.45;5.00;;;;;;;13.09;47.06;102564.13;4901120;28;123800;-75
2021/03/29 02:29:26;;;;;;;12.70;4.78;;;;;;;13.08;47.21;102567.72;4898419;28;113464;-75
2021/03/29 02:31:55;;;;;;;8.82;4.45;;;;;;;13.08;46.88;102570.38;4891399;28;113663;-75
2021/03/29 02:34:24;;;;;;;11.70;4.90;;;;;;;13.09;46.95;102564.13;4897745;28;123631;-75
2021/03/29 02:36:55;;;;;;;14.02;5.15;;;;;;;13.09;46.99;102574.75;4894297;28;122798;-75
2021/03/29 02:39:22;;;;;;;10.15;4.30;;;;;;;13.09;47.01;102578.31;4895721;28;114999;-74
2021/03/29 02:41:50;;;;;;;9.38;4.35;;;;;;;13.08;47.00;102578.34;4901624;28;115187;-74
2021/03/29 02:44:18;;;;;;;13.73;4.47;;;;;;;13.08;47.16;102575.69;4900082;28;124294;-74
2021/03/29 02:46:48;;;;;;;13.38;5.05;;;;;;;13.07;46.96;102565.97;4899826;28;123495;-74
2021/03/29 02:49:15;;;;;;;14.02;4.95;;;;;;;13.08;46.96;102562.41;4896288;28;114664;-74
2021/03/29 02:51:43;;;;;;;8.57;4.70;;;;;;;13.05;46.85;102553.59;4899436;28;113819;-74
2021/03/29 02:54:12;;;;;;;12.77;4.63;;;;;;;13.05;46.85;102553.59;4893172;28;125395;-74
2021/03/29 02:56:44;;;;;;;12.90;5.22;;;;;;;13.03;47.13;102559.84;4877906;28;123923;-74
2021/03/29 02:59:14;;;;;;;10.55;4.40;;;;;;;13.01;46.99;102559.88;4899047;28;114241;-74
2021/03/29 03:01:41;;;;;;;14.23;4.38;;;;;;;13.00;47.07;102560.81;4895857;28;113783;-74
2021/03/29 03:04:12;;;;;;;10.93;4.32;;;;;;;12.99;47.07;102564.38;4880197;28;123443;-74
2021/03/29 03:06:39;;;;;;;11.13;4.55;;;;;;;12.99;46.81;102566.16;4900682;28;123687;-74
2021/03/29 03:09:09;;;;;;;9.85;4.25;;;;;;;12.97;47.02;102560.88;4879457;28;115002;-74
2021/03/29 03:11:36;;;;;;;11.45;4.30;;;;;;;12.96;47.00;102569.78;4878449;28;113830;-74
2021/03/29 03:14:04;;;;;;;12.55;4.70;;;;;;;12.94;47.13;102565.41;4880688;28;124213;-74
2021/03/29 03:16:35;;;;;;;10.77;4.30;;;;;;;12.93;47.17;102575.19;4889517;28;123707;-74
2021/03/29 03:19:03;;;;;;;12.55;4.43;;;;;;;12.92;47.12;102568.16;4935599;23;113567;-71
2021/03/29 03:21:31;;;;;;;11.48;4.70;;;;;;;12.90;47.17;102569.94;4914543;28;113638;-71
2021/03/29 03:23:59;;;;;;;11.48;4.32;;;;;;;12.90;47.14;102564.63;4912666;28;124430;-71
2021/03/29 03:26:26;;;;;;;11.20;4.68;;;;;;;12.91;46.98;102570.84;4912452;28;124252;-71
2021/03/29 03:28:53;;;;;;;10.10;4.47;;;;;;;12.89;47.17;102570.88;4927013;28;114932;-74
2021/03/29 03:31:21;;;;;;;13.38;4.65;;;;;;;12.89;47.03;102562.91;4910019;28;115737;-71
2021/03/29 03:33:48;;;;;;;12.15;4.65;;;;;;;12.89;47.20;102567.34;4912357;28;124366;-71
2021/03/29 03:36:17;;;;;;;10.80;4.28;;;;;;;12.87;47.03;102569.19;4889648;28;123283;-71
2021/03/29 03:38:47;;;;;;;9.13;4.30;;;;;;;12.83;47.17;102565.72;4910366;28;114334;-71
2021/03/29 03:41:43;;;;;;;10.70;4.35;;;;;;;12.81;47.09;102559.59;4923400;28;114126;-71
2021/03/29 03:44:10;;;;;;;;;;;;;;;12.80;46.98;102563.13;4897599;28;122181;-71
2021/03/29 03:46:38;;;;;;;12.43;4.30;;;;;;;12.80;47.04;102569.31;4881963;28;123393;-71
2021/03/29 03:49:10;;;;;;;13.73;4.30;;;;;;;12.76;47.07;102566.78;4930798;28;114682;-71
2021/03/29 03:51:38;;;;;;;9.35;4.15;;;;;;;12.75;47.16;102565.94;4911356;28;115233;-71
2021/03/29 03:54:07;;;;;;;13.85;4.15;;;;;;;12.74;47.22;102569.50;4925741;28;124782;-71
2021/03/29 03:56:35;;;;;;;11.05;4.10;;;;;;;12.75;47.16;102565.03;4925179;28;124643;-71
2021/03/29 03:59:06;;;;;;;9.82;4.30;;;;;;;12.72;47.15;102565.13;4879382;28;113863;-72
2021/03/29 04:01:57;;;;;;;13.13;4.47;;;;;;;12.72;47.51;102570.47;4902078;28;113425;-71
2021/03/29 04:04:24;;;;;;;10.18;3.83;;;;;;;12.72;47.18;102566.00;4922197;28;124001;-71
2021/03/29 04:06:51;;;;;;;9.70;3.63;;;;;;;12.72;47.32;102565.13;4881808;28;123875;-71
2021/03/29 04:09:20;;;;;;;8.85;3.88;;;;;;;12.72;47.19;102570.47;4926329;28;113194;-71
2021/03/29 04:11:51;;;;;;;8.45;3.72;;;;;;;12.70;47.49;102566.97;4911939;28;114288;-71
2021/03/29 04:14:17;;;;;;;11.27;3.78;;;;;;;12.71;47.41;102568.69;4919199;28;123801;-71
2021/03/29 04:16:44;;;;;;;11.13;4.57;;;;;;;12.72;47.61;102570.47;4881638;28;123451;-71
2021/03/29 04:19:10;;;;;;;11.18;3.83;;;;;;;12.71;47.40;102574.00;4926617;28;115369;-71
2021/03/29 04:21:37;;;;;;;12.10;3.55;;;;;;;12.73;47.52;102577.50;4925369;28;114388;-71
2021/03/29 04:24:04;;;;;;;12.68;4.10;;;;;;;12.74;47.71;102580.13;4911302;28;123170;-71
2021/03/29 04:26:30;;;;;;;13.13;3.85;;;;;;;12.75;47.50;102575.69;4929664;28;124110;-71
2021/03/29 04:28:57;;;;;;;12.23;3.83;;;;;;;12.77;47.64;102579.16;4930079;28;114455;-71
2021/03/29 04:31:23;;;;;;;10.85;3.75;;;;;;;12.76;47.55;102582.75;4920219;28;114694;-71
2021/03/29 04:33:50;;;;;;;8.95;3.55;;;;;;;12.77;47.55;102585.38;4928605;28;124324;-71
2021/03/29 04:36:17;;;;;;;12.18;3.53;;;;;;;12.78;47.52;102580.94;4919522;28;124483;-71
2021/03/29 04:38:43;;;;;;;10.55;4.28;;;;;;;12.79;47.70;102587.97;4927634;28;114107;-71
2021/03/29 04:41:10;;;;;;;11.35;3.60;;;;;;;12.80;47.50;102579.09;4899863;28;113855;-72
2021/03/29 04:43:36;;;;;;;7.10;3.65;;;;;;;12.80;47.43;102585.28;4911849;28;122489;-71
2021/03/29 04:46:03;;;;;;;11.10;3.83;;;;;;;12.82;47.61;102587.91;4905070;28;124013;-71
2021/03/29 04:48:29;;;;;;;10.55;3.75;;;;;;;12.83;47.76;102590.53;4894310;28;113679;-71
2021/03/29 04:50:56;;;;;;;11.50;3.72;;;;;;;12.85;47.82;102590.50;4927256;28;113915;-70
2021/03/29 04:53:22;;;;;;;10.23;3.55;;;;;;;12.88;47.79;102593.03;4929243;28;123873;-69
2021/03/29 04:55:51;;;;;;;10.88;3.65;;;;;;;12.89;47.76;102596.59;4928094;28;123331;-69
2021/03/29 04:58:17;;;;;;;9.45;3.60;;;;;;;12.90;47.74;102601.84;4926232;28;114093;-69
2021/03/29 05:00:44;;;;;;;13.48;4.03;;;;;;;12.91;47.66;102614.25;4912587;28;115253;-70
2021/03/29 05:03:10;;;;;;;8.48;3.92;;;;;;;12.92;47.60;102610.69;4904834;28;123004;-69
2021/03/29 05:05:37;;;;;;;12.10;4.22;;;;;;;12.92;47.47;102615.13;4915187;28;123903;-70
2021/03/29 05:08:04;;;;;;;8.13;3.58;;;;;;;12.90;47.78;102609.84;4909431;28;115017;-70
2021/03/29 05:10:31;;;;;;;15.15;3.97;;;;;;;12.90;47.56;102612.50;4922270;28;114170;-70
2021/03/29 05:12:57;;;;;;;14.25;3.90;;;;;;;12.91;47.53;102613.38;4926767;28;123818;-69
2021/03/29 05:15:24;;;;;;;10.82;3.90;;;;;;;12.91;47.84;102622.22;4918345;28;124024;-69
2021/03/29 05:17:52;;;;;;;9.82;3.17;;;;;;;12.91;47.81;102619.56;4923238;28;114347;-69
2021/03/29 05:20:19;;;;;;;8.63;3.58;;;;;;;12.89;47.70;102621.41;4901171;28;113240;-70
2021/03/29 05:22:46;;;;;;;10.35;3.55;;;;;;;12.88;47.69;102619.63;4925180;28;123843;-70
2021/03/29 05:25:12;;;;;;;9.50;3.30;;;;;;;12.87;47.71;102617.91;4906171;28;123670;-70
2021/03/29 05:27:39;;;;;;;9.55;3.45;;;;;;;12.86;47.79;102616.16;4928415;28;113902;-70
2021/03/29 05:30:06;;;;;;;9.00;2.85;;;;;;;12.83;47.84;102622.44;4930242;28;113922;-70
2021/03/29 05:32:33;;;;;;;10.70;3.58;;;;;;;12.85;48.09;102635.69;4920798;28;123085;-70
2021/03/29 05:35:03;;;;;;;11.27;3.85;;;;;;;12.85;47.86;102625.06;4924709;28;124137;-69
2021/03/29 05:37:30;;;;;;;11.50;3.40;;;;;;;12.84;48.05;102624.16;4909029;28;113331;-69
2021/03/29 05:39:58;;;;;;;13.95;3.65;;;;;;;12.84;48.02;102628.63;4929196;28;113926;-69
2021/03/29 05:42:28;;;;;;;11.27;4.05;;;;;;;12.85;48.19;102630.38;4895093;28;123404;-69
2021/03/29 05:45:08;;;;;;;8.10;3.60;;;;;;;12.87;48.14;102633.88;4893639;28;124064;-69
2021/03/29 05:47:36;;;;;;;12.85;3.53;;;;;;;12.90;48.11;102633.75;4906959;28;113466;-72
2021/03/29 05:50:12;;;;;;;9.38;3.42;;;;;;;12.92;48.24;102637.28;4901874;28;114734;-72
2021/03/29 05:52:40;;;;;;;15.00;3.75;;;;;;;12.95;48.37;102629.22;4915111;28;124150;-72
2021/03/29 05:55:23;;;;;;;9.15;3.90;;;;;;;12.99;48.49;102633.53;4916214;28;123928;-70
2021/03/29 06:00:31;;;;;;;10.82;3.60;;;;;;;13.11;48.21;102636.78;4905293;28;115280;-70
2021/03/29 06:03:37;;;;;;;6.72;3.35;;;;;;;13.15;48.20;102643.78;4922369;28;123780;-70
2021/03/29 06:06:24;;;;;;;11.60;3.08;;;;;;;13.21;48.20;102654.25;4906716;28;123889;-70
2021/03/29 06:08:52;;;;;;;12.13;3.67;;;;;;;13.28;48.33;102647.84;4914041;28;115609;-70
2021/03/29 06:11:33;;;;;;;9.50;3.80;;;;;;;13.32;48.10;102646.88;4907320;28;114003;-70
2021/03/29 06:14:22;;;;;;;9.85;3.30;;;;;;;13.39;48.32;102648.47;4903776;28;124950;-70
2021/03/29 06:17:00;;;;;;;9.70;3.33;;;;;;;13.46;48.04;102653.63;4914716;28;124263;-70
2021/03/29 06:19:39;;;;;;;9.70;3.13;;;;;;;13.53;48.07;102660.50;4903703;28;114810;-71
2021/03/29 06:22:23;;;;;;;8.93;3.60;;;;;;;13.60;48.24;102662.97;4913424;28;114113;-70
2021/03/29 06:25:05;;;;;;;11.93;3.33;;;;;;;13.69;48.07;102660.94;4902437;28;124934;-71
2021/03/29 06:27:45;;;;;;;10.57;3.35;;;;;;;13.74;47.93;102662.53;4897539;28;123938;-68
2021/03/29 06:30:13;;;;;;;10.05;3.28;;;;;;;13.79;48.05;102663.28;4907654;28;114227;-68
2021/03/29 06:33:06;;;;;;;7.65;3.45;;;;;;;13.85;47.98;102661.38;4916118;28;112997;-69
2021/03/29 06:35:36;;;;;;;9.73;3.60;;;;;;;13.91;48.00;102661.19;4901014;28;123825;-68
2021/03/29 06:38:08;;;;;;;9.38;3.63;;;;;;;13.96;47.85;102664.59;4886399;28;123516;-70
2021/03/29 06:40:37;;;;;;;13.35;3.55;;;;;;;14.01;47.73;102673.28;4916423;28;114248;-71
2021/03/29 06:43:22;;;;;;;10.35;3.60;;;;;;;14.05;47.62;102679.41;4914928;28;114142;-70
2021/03/29 06:45:50;;;;;;;;;;;;;;;14.07;47.56;102678.47;4908632;28;123909;-70
2021/03/29 06:48:18;;;;;;;9.82;3.30;;;;;;;14.11;47.47;102680.09;4914111;28;124307;-71
2021/03/29 06:50:46;;;;;;;8.25;3.20;;;;;;;14.15;47.50;102687.09;4913580;28;115159;-70
2021/03/29 06:53:25;;;;;;;13.77;3.33;;;;;;;14.19;47.62;102696.72;4900784;28;115185;-70
2021/03/29 06:55:56;;;;;;;12.30;3.78;;;;;;;14.27;47.19;102691.16;4920813;28;124229;-70
2021/03/29 06:58:26;;;;;;;10.55;3.65;;;;;;;14.35;47.57;102704.25;4926663;28;126073;-70
2021/03/29 07:00:55;;;;;;;10.38;3.42;;;;;;;14.41;47.46;102698.75;4913915;28;113697;-69
2021/03/29 07:03:22;;;;;;;9.65;3.60;;;;;;;14.49;47.24;102702.03;4911065;28;114353;-71
2021/03/29 07:05:49;;;;;;;8.55;3.80;;;;;;;14.57;47.23;102693.81;4911122;28;124072;-70
2021/03/29 07:08:17;;;;;;;10.05;3.92;;;;;;;14.64;47.22;102700.69;4880329;28;123768;-70
2021/03/29 07:10:44;;;;;;;12.35;3.70;;;;;;;14.72;47.09;102703.13;4925791;28;113831;-73
2021/03/29 07:13:13;;;;;;;13.63;3.78;;;;;;;14.77;46.85;102701.19;4896938;28;114588;-72
2021/03/29 07:15:40;;;;;;;10.20;3.65;;;;;;;14.83;46.87;102711.63;4924515;28;124183;-70
2021/03/29 07:18:07;;;;;;;8.73;3.38;;;;;;;14.86;46.86;102695.53;4912766;28;124039;-70
2021/03/29 07:20:35;;;;;;;8.00;3.50;;;;;;;14.93;46.77;102702.41;4911103;28;114104;-71
2021/03/29 07:23:02;;;;;;;13.98;3.95;;;;;;;14.98;46.71;102705.78;4943692;28;113548;-70
2021/03/29 07:25:31;;;;;;;11.07;3.63;;;;;;;15.05;46.71;102701.13;4924037;28;124573;-70
2021/03/29 07:28:00;;;;;;;11.73;3.63;;;;;;;15.13;46.54;102698.19;4899276;28;123845;-71
2021/03/29 07:30:48;;;;;;;10.05;3.70;;;;;;;15.18;46.18;102704.22;4918076;28;114459;-70
2021/03/29 07:33:16;;;;;;;12.63;3.85;;;;;;;15.24;46.35;102712.03;4919777;28;113352;-70
2021/03/29 07:35:52;;;;;;;13.07;4.15;;;;;;;15.28;46.42;102713.69;4919109;28;123070;-72
2021/03/29 07:38:20;;;;;;;12.10;3.95;;;;;;;15.36;46.33;102727.63;4917565;28;125003;-71
2021/03/29 07:40:50;;;;;;;8.35;3.78;;;;;;;15.44;46.23;102710.47;4914118;28;115168;-71
2021/03/29 07:43:19;;;;;;;10.65;4.15;;;;;;;15.53;46.17;102719.00;4915125;28;115656;-71
2021/03/29 07:45:51;;;;;;;9.95;3.80;;;;;;;15.61;46.25;102726.75;4924095;28;124253;-70
2021/03/29 07:48:37;;;;;;;10.10;3.80;;;;;;;15.72;46.15;102732.56;4914345;28;124031;-71
2021/03/29 07:51:16;;;;;;;10.18;4.30;;;;;;;15.82;46.04;102724.25;4911306;28;114406;-70
2021/03/29 07:53:51;;;;;;;13.10;3.65;;;;;;;15.89;46.03;102726.63;4910505;28;114004;-70
2021/03/29 07:56:27;;;;;;;;;;;;;;;15.99;46.22;102735.19;4895623;28;122997;-71
2021/03/29 07:58:53;;;;;;;9.60;3.50;;;;;;;16.08;45.74;102732.16;4912528;28;122352;-70
2021/03/29 08:01:20;;;;;;;8.52;3.60;;;;;;;16.13;45.86;102734.66;4913927;28;114272;-71
2021/03/29 08:03:50;;;;;;;10.48;3.83;;;;;;;16.20;45.50;102729.94;4913621;28;113814;-70
2021/03/29 08:06:36;;;;;;;17.05;3.83;;;;;;;16.25;45.52;102733.31;4891246;28;122654;-70
2021/03/29 08:09:05;;;;;;;9.57;3.88;;;;;;;16.34;45.20;102738.31;4898563;28;123928;-70
2021/03/29 08:11:55;;;;;;;11.38;3.63;;;;;;;16.39;45.23;102746.16;4895658;28;114256;-71
2021/03/29 08:14:29;;;;;;;8.35;3.15;;;;;;;16.46;45.06;102745.88;4901992;28;114245;-71
2021/03/29 08:16:56;;;;;;;13.23;4.15;;;;;;;16.53;45.18;102749.16;4911445;28;124948;-70
2021/03/29 08:19:29;;;;;;;9.10;3.55;;;;;;;16.61;45.11;102738.16;4917643;28;124733;-71
2021/03/29 08:22:14;;;;;;;9.30;3.55;;;;;;;16.73;44.90;102740.34;4898139;28;115002;-70
2021/03/29 08:24:47;;;;;;;10.48;3.78;;;;;;;16.82;44.64;102740.00;4909010;28;113999;-70
2021/03/29 08:27:18;;;;;;;7.50;3.50;;;;;;;16.90;44.24;102737.88;4909612;28;124070;-71
2021/03/29 08:29:52;;;;;;;9.90;3.70;;;;;;;16.97;44.60;102748.31;4911171;28;123753;-70
2021/03/29 08:32:33;;;;;;;7.88;3.95;;;;;;;17.06;44.54;102734.56;4907805;28;115997;-70
2021/03/29 08:35:11;;;;;;;10.93;4.18;;;;;;;17.20;44.28;102736.66;4911494;28;114925;-71
2021/03/29 08:37:40;;;;;;;9.63;3.78;;;;;;;17.30;44.19;102738.84;4909584;28;124512;-71
2021/03/29 08:40:17;;;;;;;11.70;3.95;;;;;;;17.44;44.01;102748.09;4922996;28;123550;-70
2021/03/29 08:42:46;;;;;;;10.52;3.33;;;;;;;17.53;43.76;102753.06;4920336;28;113148;-71
2021/03/29 08:45:21;;;;;;;8.48;3.33;;;;;;;17.62;43.15;102758.00;4908703;28;112762;-71
2021/03/29 08:47:50;;;;;;;15.13;3.33;;;;;;;17.69;43.07;102743.41;4909756;28;124766;-71
2021/03/29 08:50:19;;;;;;;7.78;3.10;;;;;;;17.76;42.86;102744.00;4906168;28;123180;-71
2021/03/29 08:52:51;;;;;;;9.88;3.03;;;;;;;17.86;42.55;102752.53;4902931;28;114626;-70
2021/03/29 08:55:23;;;;;;;9.30;2.97;;;;;;;17.95;42.32;102753.91;4894983;28;114214;-71
2021/03/29 08:57:54;;;;;;;8.50;3.13;;;;;;;18.02;42.32;102756.25;4917105;28;123166;-71
2021/03/29 09:00:26;;;;;;;9.73;3.20;;;;;;;18.12;41.92;102755.81;4889816;28;123116;-71
2021/03/29 09:02:53;;;;;;;8.70;3.30;;;;;;;18.21;41.57;102763.44;4899939;28;114423;-71
2021/03/29 09:05:21;;;;;;;10.48;3.45;;;;;;;18.26;41.44;102769.47;4909736;28;112925;-71
2021/03/29 09:07:51;;;;;;;6.10;3.10;;;;;;;18.32;41.17;102769.19;4908681;28;124049;-70
2021/03/29 09:10:25;;;;;;;10.27;3.67;;;;;;;18.41;41.03;102774.13;4907429;28;122946;-70
2021/03/29 09:12:53;;;;;;;10.10;3.13;;;;;;;18.52;40.97;102770.06;4910279;28;114840;-71
2021/03/29 09:15:20;;;;;;;10.82;3.22;;;;;;;18.61;40.95;102777.66;4910311;28;113795;-70
2021/03/29 09:17:58;;;;;;;8.32;3.20;;;;;;;18.69;40.19;102778.16;4889705;28;632009;-71
2021/03/29 09:20:35;;;;;;;6.95;3.00;;;;;;;18.77;39.97;102781.34;4911786;28;124472;-71
2021/03/29 09:23:04;;;;;;;8.82;3.25;;;;;;;18.86;39.92;102785.44;4914454;28;115737;-70
2021/03/29 09:25:39;;;;;;;11.25;3.45;;;;;;;18.92;40.21;102785.13;4913447;28;115624;-71
2021/03/29 09:28:11;;;;;;;;;;;;;;;19.02;40.97;102790.91;4915717;28;124390;-71
2021/03/29 09:30:39;;;;;;;9.85;3.28;;;;;;;19.15;39.86;102786.66;4915747;28;124229;-70
2021/03/29 09:33:06;;;;;;;10.68;3.45;;;;;;;19.21;39.59;102786.38;4910071;28;114157;-71
2021/03/29 09:35:33;;;;;;;9.25;3.28;;;;;;;19.30;38.80;102794.91;4917424;28;113912;-71
2021/03/29 09:38:00;;;;;;;7.65;2.90;;;;;;;19.34;38.49;102796.47;4910470;28;125186;-71
2021/03/29 09:40:36;;;;;;;7.00;2.88;;;;;;;19.38;38.62;102800.75;4909988;28;123505;-71
2021/03/29 09:43:04;;;;;;;8.73;2.85;;;;;;;19.47;38.66;102791.34;4912377;28;113901;-71
2021/03/29 09:45:34;;;;;;;12.63;3.28;;;;;;;19.57;38.40;102793.50;4921394;28;113737;-71
2021/03/29 09:48:05;;;;;;;11.35;3.10;;;;;;;19.68;38.11;102794.72;4881368;28;123456;-71
2021/03/29 09:50:36;;;;;;;7.40;3.13;;;;;;;19.77;37.95;102799.66;4914345;28;123878;-71
2021/03/29 09:53:18;;;;;;;9.40;3.03;;;;;;;19.83;37.64;102804.69;4914923;28;113094;-71
2021/03/29 09:55:48;;;;;;;7.35;2.85;;;;;;;19.92;37.55;102804.22;4914314;28;113931;-71
2021/03/29 09:58:39;;;;;;;7.18;3.17;;;;;;;19.98;37.19;102797.63;4914471;28;124084;-72
2021/03/29 10:01:17;;;;;;;8.40;3.05;;;;;;;20.03;37.18;102807.19;4919587;28;124580;-71
2021/03/29 10:03:59;;;;;;;9.93;2.95;;;;;;;20.09;36.95;102806.00;4901477;28;113204;-71
2021/03/29 10:06:28;;;;;;;7.90;2.80;;;;;;;20.15;36.86;102810.19;4895739;28;112804;-71
2021/03/29 10:09:08;;;;;;;9.55;3.33;;;;;;;20.22;36.35;102816.97;4920950;28;123794;-72
2021/03/29 10:11:48;;;;;;;9.25;3.42;;;;;;;20.27;36.22;102808.63;4914567;28;123910;-71
2021/03/29 10:14:16;;;;;;;5.85;2.88;;;;;;;20.32;36.14;102817.34;4899662;28;115175;-71
2021/03/29 10:16:45;;;;;;;9.57;3.10;;;;;;;20.35;35.61;102818.03;4914717;28;115462;-71
2021/03/29 10:19:14;;;;;;;6.10;2.65;;;;;;;20.41;35.65;102817.69;4898541;28;123961;-71
2021/03/29 10:22:00;;;;;;;9.57;2.85;;;;;;;20.43;35.39;102815.78;4898471;28;123944;-71
2021/03/29 10:24:27;;;;;;;10.48;2.83;;;;;;;20.49;35.02;102813.72;4895293;28;114655;-71
2021/03/29 10:26:56;;;;;;;7.65;2.95;;;;;;;20.53;34.60;102807.19;4912833;28;113532;-71
2021/03/29 10:29:41;;;;;;;6.88;2.78;;;;;;;20.59;34.95;102809.56;4896554;28;123119;-71
2021/03/29 10:32:13;;;;;;;7.13;2.95;;;;;;;20.64;34.75;102807.50;4913517;28;122944;-71
2021/03/29 10:34:43;;;;;;;6.85;2.85;;;;;;;20.70;34.67;102804.47;4907565;28;114644;-71
2021/03/29 10:37:27;;;;;;;8.32;3.22;;;;;;;20.75;34.41;102798.81;4914731;28;114389;-71
2021/03/29 10:39:55;;;;;;;8.10;3.05;;;;;;;20.80;34.51;102802.97;4887572;28;124205;-71
2021/03/29 10:42:26;;;;;;;7.35;3.10;;;;;;;20.89;34.15;102816.88;4916760;28;124591;-71
2021/03/29 10:44:54;;;;;;;8.98;3.00;;;;;;;20.97;34.31;102811.94;4903637;28;114884;-71
2021/03/29 10:47:22;;;;;;;7.68;3.00;;;;;;;21.05;34.09;102806.09;4914168;28;114003;-70
2021/03/29 10:49:50;;;;;;;8.15;3.25;;;;;;;21.12;33.92;102813.72;4914104;28;124460;-71
2021/03/29 10:52:17;;;;;;;8.32;2.90;;;;;;;21.20;33.63;102822.22;4896905;28;123110;-71
2021/03/29 10:54:44;;;;;;;5.85;2.40;;;;;;;21.28;33.49;102813.69;4914721;28;114380;-71
2021/03/29 10:57:10;;;;;;;6.65;2.83;;;;;;;21.38;33.63;102819.41;4907832;28;114697;-72
2021/03/29 10:59:37;;;;;;;8.20;2.85;;;;;;;21.48;33.37;102809.84;4917754;28;124302;-71
2021/03/29 11:02:04;;;;;;;6.45;2.90;;;;;;;21.61;32.83;102814.50;4897835;28;123628;-71
2021/03/29 11:04:31;;;;;;;5.72;2.40;;;;;;;21.68;32.69;102815.84;4913853;28;115400;-71
2021/03/29 11:06:57;;;;;;;8.23;2.80;;;;;;;21.73;32.45;102808.34;4895879;28;115086;-71
2021/03/29 11:09:25;;;;;;;7.68;2.92;;;;;;;21.78;32.27;102796.31;4914083;28;124159;-71
2021/03/29 11:11:52;;;;;;;8.55;3.20;;;;;;;21.87;32.13;102810.19;4895681;28;123054;-70
2021/03/29 11:14:20;;;;;;;5.78;2.80;;;;;;;21.94;31.62;102812.44;4912530;28;113414;-72
2021/03/29 11:16:52;;;;;;;7.60;2.88;;;;;;;22.01;31.41;102817.44;4896235;28;114152;-71
2021/03/29 11:19:20;;;;;;;5.53;2.78;;;;;;;22.04;31.43;102803.75;4898621;28;123793;-71
2021/03/29 11:21:48;;;;;;;9.75;3.40;;;;;;;22.08;31.25;102802.63;4913933;28;123474;-71
2021/03/29 11:24:18;;;;;;;8.65;3.03;;;;;;;22.15;31.09;102803.94;4895965;28;113621;-72
2021/03/29 11:26:45;;;;;;;7.07;2.97;;;;;;;22.21;31.08;102798.19;4913346;28;114372;-71
2021/03/29 11:29:13;;;;;;;7.55;3.00;;;;;;;22.31;31.21;102810.13;4912383;28;124776;-71
2021/03/29 11:31:42;;;;;;;6.13;2.90;;;;;;;22.41;30.84;102809.56;4896305;28;123219;-70
2021/03/29 11:34:10;;;;;;;9.32;2.80;;;;;;;22.48;30.87;102800.97;4912189;28;113240;-71